Time;durP1;ratioP1;P1;durP2;ratioP2;P2;SDS_P1;SDS_P2;PMS_P1;PMS_P2;Temp;Humidity;BMP_temperature;BMP_pressure;BME280_temperature;BME280_humidity;BME280_pressure;Samples;Min_cycle;Max_cycle;Signal;HPM_P1;HPM_P2
2022/08/17 00:00:38;;;;;;;;;;;18.50;99.90;;;;;;4979693;28;20724;-80
2022/08/17 00:03:09;;;;;;;;;;;18.40;99.90;;;;;;4982629;28;19909;-80
2022/08/17 00:05:37;;;;;;;;;;;18.30;99.90;;;;;;4981861;28;19980;-81
2022/08/17 00:08:02;;;;;;;;;;;18.20;99.90;;;;;;4983542;28;19961;-80
2022/08/17 00:10:28;;;;;;;;;;;18.10;99.90;;;;;;4984044;28;19977;-80
2022/08/17 00:12:54;;;;;;;;;;;18.20;99.90;;;;;;4981688;28;20377;-80
2022/08/17 00:15:20;;;;;;;;;;;18.00;99.90;;;;;;4983276;28;19990;-78
2022/08/17 00:17:47;;;;;;;;;;;18.10;99.90;;;;;;4983182;28;19925;-77
2022/08/17 00:20:13;;;;;;;;;;;18.00;99.90;;;;;;4982304;28;19913;-78
2022/08/17 00:22:38;;;;;;;;;;;17.90;99.90;;;;;;4965955;28;19917;-77
2022/08/17 00:25:06;;;;;;;;;;;17.70;99.90;;;;;;4983671;28;19913;-78
2022/08/17 00:27:32;;;;;;;;;;;17.50;99.90;;;;;;4983688;28;19940;-78
2022/08/17 00:29:58;;;;;;;;;;;17.30;99.90;;;;;;4983817;28;19909;-78
2022/08/17 00:32:23;;;;;;;;;;;17.30;99.90;;;;;;4983185;28;20304;-79
2022/08/17 00:34:49;;;;;;;;;;;17.30;99.90;;;;;;4978013;28;19929;-79
2022/08/17 00:37:14;;;;;;;;;;;17.10;99.90;;;;;;4992060;28;19910;-78
2022/08/17 00:39:40;;;;;;;;;;;17.20;99.90;;;;;;4995709;28;19921;-79
2022/08/17 00:42:13;;;;;;;;;;;17.20;99.90;;;;;;4987046;28;19924;-79
2022/08/17 00:44:38;;;;;;;;;;;17.10;99.90;;;;;;4969424;28;20479;-77
2022/08/17 00:47:04;;;;;;;;;;;17.00;99.90;;;;;;4986422;28;19914;-77
2022/08/17 00:49:30;;;;;;;;;;;16.90;99.90;;;;;;4986953;28;19913;-78
2022/08/17 00:51:58;;;;;;;;;;;17.00;99.90;;;;;;4986824;28;20060;-78
2022/08/17 00:54:27;;;;;;;;;;;17.00;99.90;;;;;;4986790;28;19925;-78
2022/08/17 00:56:55;;;;;;;;;;;17.00;99.90;;;;;;4986526;28;19914;-78
2022/08/17 00:59:23;;;;;;;;;;;17.20;99.90;;;;;;4986649;28;19975;-78
2022/08/17 01:01:49;;;;;;;;;;;17.00;99.90;;;;;;4965849;28;19936;-78
2022/08/17 01:04:16;;;;;;;;;;;17.00;99.90;;;;;;4967056;28;19996;-78
2022/08/17 01:06:45;;;;;;;;;;;17.00;99.90;;;;;;4980434;28;19914;-78
2022/08/17 01:09:11;;;;;;;;;;;16.80;99.90;;;;;;4982133;28;19920;-78
2022/08/17 01:11:39;;;;;;;;;;;16.70;99.90;;;;;;4986857;28;19953;-78
2022/08/17 01:14:05;;;;;;;;;;;16.90;99.90;;;;;;4998296;28;19921;-78
2022/08/17 01:16:31;;;;;;;;;;;17.10;99.90;;;;;;4986878;28;19913;-78
2022/08/17 01:19:02;;;;;;;;;;;16.80;99.90;;;;;;4986368;28;19957;-78
2022/08/17 01:21:32;;;;;;;;;;;16.70;99.90;;;;;;4984362;28;19914;-78
2022/08/17 01:23:58;;;;;;;;;;;16.70;99.90;;;;;;4986304;28;20393;-78
2022/08/17 01:26:24;;;;;;;;;;;16.50;99.90;;;;;;4986005;28;20297;-77
2022/08/17 01:28:50;;;;;;;;;;;16.60;99.90;;;;;;4986185;28;19933;-81
2022/08/17 01:31:15;;;;;;;;;;;16.40;99.90;;;;;;4985822;28;19913;-78
2022/08/17 01:33:41;;;;;;;;;;;16.50;99.90;;;;;;4958994;28;19921;-78
2022/08/17 01:36:07;;;;;;;;;;;16.40;99.90;;;;;;4985027;28;19940;-77
2022/08/17 01:38:36;;;;;;;;;;;16.50;99.90;;;;;;4985916;28;20326;-77
2022/08/17 01:41:05;;;;;;;;;;;16.40;99.90;;;;;;4981239;28;20557;-77
2022/08/17 01:43:33;;;;;;;;;;;16.40;99.90;;;;;;4985583;28;19913;-79
2022/08/17 01:46:00;;;;;;;;;;;16.40;99.90;;;;;;4985804;28;19914;-79
2022/08/17 01:48:29;;;;;;;;;;;16.50;99.90;;;;;;4985930;28;19914;-79
2022/08/17 01:50:54;;;;;;;;;;;16.70;99.90;;;;;;4985615;28;19913;-78
2022/08/17 01:53:33;;;;;;;;;;;16.50;99.90;;;;;;4986086;28;20315;-85
2022/08/17 01:56:05;;;;;;;;;;;16.40;99.90;;;;;;4984073;28;20008;-84
2022/08/17 01:58:31;;;;;;;;;;;16.30;99.90;;;;;;4983868;28;19925;-87
2022/08/17 02:00:56;;;;;;;;;;;16.40;99.90;;;;;;4986956;28;19909;-87
2022/08/17 02:03:23;;;;;;;;;;;16.50;99.90;;;;;;4986700;28;19921;-87
2022/08/17 02:05:49;;;;;;;;;;;16.40;99.90;;;;;;4974670;28;19921;-86
2022/08/17 02:08:15;;;;;;;;;;;16.30;99.90;;;;;;4986412;28;20000;-84
2022/08/17 02:10:41;;;;;;;;;;;16.20;99.90;;;;;;4985909;28;19914;-84
2022/08/17 02:13:06;;;;;;;;;;;16.40;99.90;;;;;;4985649;28;19968;-85
2022/08/17 02:15:33;;;;;;;;;;;16.20;99.90;;;;;;4985852;28;20397;-86
2022/08/17 02:18:00;;;;;;;;;;;16.00;99.90;;;;;;4968487;28;19936;-86
2022/08/17 02:20:25;;;;;;;;;;;16.00;99.90;;;;;;4983157;28;20317;-86
2022/08/17 02:22:51;;;;;;;;;;;15.80;99.90;;;;;;4985392;28;20471;-86
2022/08/17 02:25:18;;;;;;;;;;;15.70;99.90;;;;;;4968024;28;20372;-85
2022/08/17 02:27:44;;;;;;;;;;;15.60;99.90;;;;;;4985107;28;19913;-86
2022/08/17 02:30:11;;;;;;;;;;;15.60;99.90;;;;;;4985205;28;19910;-85
2022/08/17 02:32:36;;;;;;;;;;;15.50;99.90;;;;;;4985516;28;19910;-85
2022/08/17 02:35:03;;;;;;;;;;;15.50;99.90;;;;;;4984533;28;19921;-86
2022/08/17 02:37:29;;;;;;;;;;;15.40;99.90;;;;;;4982954;28;20522;-86
2022/08/17 02:39:55;;;;;;;;;;;15.40;99.90;;;;;;4984923;28;20453;-87
2022/08/17 02:42:25;;;;;;;;;;;15.40;99.90;;;;;;4967250;28;19913;-87
2022/08/17 02:44:50;;;;;;;;;;;15.30;99.90;;;;;;4985562;28;19918;-88
2022/08/17 02:47:16;;;;;;;;;;;15.30;99.90;;;;;;4985573;28;19968;-87
2022/08/17 02:49:41;;;;;;;;;;;15.30;99.90;;;;;;4985661;28;20420;-87
2022/08/17 02:52:07;;;;;;;;;;;15.20;99.90;;;;;;4985211;28;19925;-77
2022/08/17 02:54:34;;;;;;;;;;;15.20;99.90;;;;;;4984078;28;20473;-77
2022/08/17 02:56:59;;;;;;;;;;;15.10;99.90;;;;;;4981679;28;19965;-77
2022/08/17 02:59:25;;;;;;;;;;;15.20;99.90;;;;;;4984193;28;20424;-78
2022/08/17 03:01:50;;;;;;;;;;;15.20;99.90;;;;;;4962791;28;19919;-77
2022/08/17 03:04:16;;;;;;;;;;;15.20;99.90;;;;;;4984081;28;19914;-77
2022/08/17 03:06:41;;;;;;;;;;;15.10;99.90;;;;;;4984239;28;19913;-79
2022/08/17 03:09:07;;;;;;;;;;;15.20;99.90;;;;;;4997095;28;20396;-78
2022/08/17 03:11:33;;;;;;;;;;;15.10;99.90;;;;;;4984200;28;19910;-78
2022/08/17 03:13:58;;;;;;;;;;;15.10;99.90;;;;;;4983956;28;20447;-78
2022/08/17 03:16:24;;;;;;;;;;;15.10;99.90;;;;;;4984318;28;19921;-79
2022/08/17 03:18:49;;;;;;;;;;;15.10;99.90;;;;;;4982371;28;20662;-78
2022/08/17 03:21:15;;;;;;;;;;;15.10;99.90;;;;;;4984290;28;20011;-77
2022/08/17 03:23:41;;;;;;;;;;;15.10;99.90;;;;;;4983812;28;19953;-79
2022/08/17 03:26:10;;;;;;;;;;;15.20;99.90;;;;;;4984502;28;19910;-79
2022/08/17 03:28:39;;;;;;;;;;;15.20;99.90;;;;;;4978484;28;19913;-77
2022/08/17 03:31:05;;;;;;;;;;;15.10;99.90;;;;;;4984099;28;20405;-77
2022/08/17 03:33:31;;;;;;;;;;;15.00;99.90;;;;;;4980394;28;20017;-79
2022/08/17 03:35:57;;;;;;;;;;;15.10;99.90;;;;;;4976182;28;19980;-77
2022/08/17 03:38:23;;;;;;;;;;;15.10;99.90;;;;;;4980878;28;20232;-77
2022/08/17 03:40:48;;;;;;;;;;;15.10;99.90;;;;;;4982223;28;19914;-76
2022/08/17 03:43:14;;;;;;;;;;;15.00;99.90;;;;;;4983920;28;19918;-77
2022/08/17 03:56:43;;;;;;;;;;;15.10;99.90;;;;;;4978943;28;20751;-79
2022/08/17 03:59:15;;;;;;;;;;;15.00;99.90;;;;;;4952774;28;19968;-77
2022/08/17 04:01:44;;;;;;;;;;;15.00;99.90;;;;;;4964983;28;19949;-78
2022/08/17 04:04:11;;;;;;;;;;;15.10;99.90;;;;;;4983332;28;20336;-78
2022/08/17 04:06:36;;;;;;;;;;;15.20;99.90;;;;;;4984048;28;20004;-77
2022/08/17 04:09:02;;;;;;;;;;;15.10;99.90;;;;;;4966069;28;20004;-78
2022/08/17 04:11:28;;;;;;;;;;;15.00;99.90;;;;;;4987380;28;20430;-78
2022/08/17 04:13:55;;;;;;;;;;;14.80;99.90;;;;;;4988004;28;19978;-78
2022/08/17 04:16:21;;;;;;;;;;;14.90;99.90;;;;;;4987630;28;19917;-78
2022/08/17 04:18:47;;;;;;;;;;;15.00;99.90;;;;;;4986864;28;20408;-76
2022/08/17 04:21:13;;;;;;;;;;;15.00;99.90;;;;;;4980154;28;19914;-76
2022/08/17 04:23:38;;;;;;;;;;;15.10;99.90;;;;;;4987472;28;19913;-78
2022/08/17 04:26:04;;;;;;;;;;;15.00;99.90;;;;;;4987326;28;19921;-78
2022/08/17 04:28:29;;;;;;;;;;;15.00;99.90;;;;;;4986892;28;19913;-78
2022/08/17 04:30:55;;;;;;;;;;;15.00;99.90;;;;;;4987412;28;20357;-78
2022/08/17 04:33:23;;;;;;;;;;;15.10;99.90;;;;;;4969799;28;20019;-78
2022/08/17 04:35:50;;;;;;;;;;;15.00;99.90;;;;;;4980635;28;20300;-78
2022/08/17 04:38:20;;;;;;;;;;;15.00;99.90;;;;;;4986759;28;19920;-79
2022/08/17 04:43:31;;;;;;;;;;;15.00;99.90;;;;;;4986863;28;20420;-77
2022/08/17 04:45:59;;;;;;;;;;;14.90;99.90;;;;;;4987181;28;19925;-78
2022/08/17 04:48:26;;;;;;;;;;;14.90;99.90;;;;;;4987118;28;19916;-78
2022/08/17 04:50:51;;;;;;;;;;;14.90;99.90;;;;;;4975345;28;19969;-78
2022/08/17 04:53:18;;;;;;;;;;;14.90;99.90;;;;;;4987099;28;19917;-78
2022/08/17 04:55:44;;;;;;;;;;;14.80;99.90;;;;;;4958896;28;19928;-80
2022/08/17 04:58:09;;;;;;;;;;;14.90;99.90;;;;;;4968423;28;19914;-78
2022/08/17 05:00:36;;;;;;;;;;;14.90;99.90;;;;;;4983444;28;20432;-78
2022/08/17 05:03:01;;;;;;;;;;;14.90;99.90;;;;;;4986231;28;19909;-77
2022/08/17 05:05:28;;;;;;;;;;;14.80;99.90;;;;;;4985682;28;20305;-78
2022/08/17 05:07:55;;;;;;;;;;;15.00;99.90;;;;;;4986071;28;19918;-78
2022/08/17 05:10:21;;;;;;;;;;;15.00;99.90;;;;;;4986460;28;19914;-79
2022/08/17 05:12:55;;;;;;;;;;;15.10;99.90;;;;;;4968307;28;19921;-78
2022/08/17 05:15:21;;;;;;;;;;;14.90;99.90;;;;;;4968392;28;19922;-78
2022/08/17 05:17:46;;;;;;;;;;;15.00;99.90;;;;;;4985933;28;20077;-77
2022/08/17 05:20:12;;;;;;;;;;;15.20;99.90;;;;;;4963458;28;20009;-77
2022/08/17 05:22:45;;;;;;;;;;;15.50;99.90;;;;;;4979756;28;19913;-77
2022/08/17 05:25:11;;;;;;;;;;;15.90;99.90;;;;;;4972946;28;20387;-77
2022/08/17 05:27:36;;;;;;;;;;;16.50;99.90;;;;;;4981823;28;19964;-77
2022/08/17 05:30:02;;;;;;;;;;;16.60;99.90;;;;;;4984176;28;19949;-77
2022/08/17 05:32:28;;;;;;;;;;;16.40;99.90;;;;;;4985867;28;20455;-78
2022/08/17 05:34:54;;;;;;;;;;;15.90;99.90;;;;;;4961259;28;20029;-78
2022/08/17 05:37:20;;;;;;;;;;;16.60;99.90;;;;;;4985241;28;19952;-77
2022/08/17 05:39:45;;;;;;;;;;;17.30;99.90;;;;;;4986012;28;20022;-77
2022/08/17 05:42:11;;;;;;;;;;;17.60;99.90;;;;;;4984049;28;20441;-77
2022/08/17 05:44:36;;;;;;;;;;;18.00;99.90;;;;;;4973302;28;19918;-79
2022/08/17 05:47:04;;;;;;;;;;;18.20;99.90;;;;;;4974191;28;19940;-78
2022/08/17 05:49:29;;;;;;;;;;;18.70;99.90;;;;;;4985352;28;19917;-79
2022/08/17 05:52:14;;;;;;;;;;;19.00;99.90;;;;;;4979897;28;19922;-79
2022/08/17 05:55:09;;;;;;;;;;;19.20;99.90;;;;;;4959602;28;19921;-79
2022/08/17 05:57:41;;;;;;;;;;;19.30;99.90;;;;;;4957427;28;19909;-79
2022/08/17 06:00:18;;;;;;;;;;;19.80;99.90;;;;;;4984851;28;19914;-79
2022/08/17 06:03:02;;;;;;;;;;;20.00;99.90;;;;;;4982050;28;19960;-79
2022/08/17 06:05:28;;;;;;;;;;;20.30;99.90;;;;;;4959806;28;20448;-80
2022/08/17 06:08:17;;;;;;;;;;;20.40;99.90;;;;;;4977895;28;19918;-79
2022/08/17 06:11:00;;;;;;;;;;;20.50;99.90;;;;;;4904119;29;19915;-78
2022/08/17 06:13:44;;;;;;;;;;;21.00;99.90;;;;;;4899452;29;21601;-78
2022/08/17 06:16:11;;;;;;;;;;;21.30;99.90;;;;;;4900243;29;20437;-79
2022/08/17 06:18:40;;;;;;;;;;;21.60;99.90;;;;;;4897716;29;20043;-74
2022/08/17 06:21:10;;;;;;;;;;;21.70;99.90;;;;;;4908000;29;19925;-75
2022/08/17 06:23:42;;;;;;;;;;;21.90;99.90;;;;;;4904000;29;20033;-74
2022/08/17 06:26:11;;;;;;;;;;;20.90;99.90;;;;;;4888227;29;20410;-74
2022/08/17 06:28:40;;;;;;;;;;;20.60;99.90;;;;;;4903385;29;20074;-73
2022/08/17 06:31:11;;;;;;;;;;;19.90;99.90;;;;;;4903858;29;19919;-73
2022/08/17 06:33:38;;;;;;;;;;;20.20;99.90;;;;;;4903656;29;19930;-73
2022/08/17 06:36:29;;;;;;;;;;;20.90;99.90;;;;;;4903227;29;19934;-73
2022/08/17 06:39:08;;;;;;;;;;;21.40;99.90;;;;;;4885066;29;20383;-73
2022/08/17 06:41:42;;;;;;;;;;;21.60;99.90;;;;;;4885919;29;19999;-73
2022/08/17 06:44:12;;;;;;;;;;;20.90;99.90;;;;;;4885605;29;19907;-74
2022/08/17 06:46:41;;;;;;;;;;;20.30;99.90;;;;;;4885743;29;19923;-73
2022/08/17 06:49:20;;;;;;;;;;;19.20;99.90;;;;;;4911856;29;19915;-73
2022/08/17 06:52:01;;;;;;;;;;;19.80;99.90;;;;;;4923380;29;20010;-73
2022/08/17 06:54:38;;;;;;;;;;;20.00;99.90;;;;;;4924095;29;20049;-73
2022/08/17 06:57:09;;;;;;;;;;;19.70;99.90;;;;;;4924686;29;19922;-74
2022/08/17 06:59:44;;;;;;;;;;;19.50;99.90;;;;;;4923286;29;19911;-73
2022/08/17 07:02:16;;;;;;;;;;;19.30;99.90;;;;;;4921779;29;19919;-73
2022/08/17 07:04:42;;;;;;;;;;;19.10;99.90;;;;;;4902666;29;19915;-73
2022/08/17 07:09:55;;;;;;;;;;;18.80;99.90;;;;;;4921121;29;19950;-74
2022/08/17 07:12:23;;;;;;;;;;;19.20;99.90;;;;;;4923376;29;20413;-79
2022/08/17 07:14:54;;;;;;;;;;;19.40;99.90;;;;;;4928013;28;19919;-75
2022/08/17 07:17:21;;;;;;;;;;;19.50;99.90;;;;;;4977486;28;19921;-75
2022/08/17 07:19:48;;;;;;;;;;;19.20;99.90;;;;;;4965328;28;20727;-74
2022/08/17 07:22:17;;;;;;;;;;;18.90;99.90;;;;;;4982236;28;20004;-74
2022/08/17 07:24:48;;;;;;;;;;;18.90;99.90;;;;;;4980165;28;19921;-74
2022/08/17 07:27:22;;;;;;;;;;;18.50;99.90;;;;;;4984617;28;20008;-75
2022/08/17 07:29:48;;;;;;;;;;;18.70;99.90;;;;;;4983426;28;20000;-75
2022/08/17 07:32:17;;;;;;;;;;;18.50;99.90;;;;;;4963119;28;20656;-74
2022/08/17 07:35:00;;;;;;;;;;;18.30;99.90;;;;;;4983398;28;19913;-75
2022/08/17 07:37:26;;;;;;;;;;;18.50;99.90;;;;;;4979725;28;19975;-74
2022/08/17 07:39:51;;;;;;;;;;;18.50;99.90;;;;;;4980811;28;21498;-74
2022/08/17 07:42:17;;;;;;;;;;;19.00;99.90;;;;;;4975230;28;20648;-75
2022/08/17 07:44:48;;;;;;;;;;;19.60;99.90;;;;;;4977033;28;19914;-75
2022/08/17 07:50:02;;;;;;;;;;;19.30;99.90;;;;;;4899977;29;19918;-77
2022/08/17 07:52:29;;;;;;;;;;;19.80;99.90;;;;;;4913890;29;20438;-76
2022/08/17 07:54:55;;;;;;;;;;;20.10;99.90;;;;;;4902495;29;20413;-76
2022/08/17 07:57:22;;;;;;;;;;;20.80;99.90;;;;;;4900782;29;19955;-76
2022/08/17 07:59:59;;;;;;;;;;;21.00;99.90;;;;;;4902371;29;19919;-78
2022/08/17 08:02:39;;;;;;;;;;;22.40;99.90;;;;;;4904660;29;19919;-77
2022/08/17 08:05:08;;;;;;;;;;;24.00;99.90;;;;;;4919123;29;19918;-77
2022/08/17 08:07:53;;;;;;;;;;;23.10;99.90;;;;;;4918659;29;19994;-76
2022/08/17 08:10:28;;;;;;;;;;;23.10;99.90;;;;;;4910324;29;19911;-77
2022/08/17 08:13:04;;;;;;;;;;;23.90;99.90;;;;;;4900814;29;20685;-74
2022/08/17 08:15:35;;;;;;;;;;;24.00;99.90;;;;;;4901241;29;20042;-75
2022/08/17 08:18:02;;;;;;;;;;;27.10;99.90;;;;;;4895503;29;19942;-74
2022/08/17 08:21:07;;;;;;;;;;;27.90;99.90;;;;;;4903968;29;19922;-76
2022/08/17 08:23:35;;;;;;;;;;;27.90;99.90;;;;;;4865441;29;19932;-76
2022/08/17 08:26:04;;;;;;;;;;;28.00;99.90;;;;;;4858503;29;19915;-75
2022/08/17 08:28:44;;;;;;;;;;;28.30;99.90;;;;;;4942009;28;20523;-78
2022/08/17 08:31:15;;;;;;;;;;;26.70;99.90;;;;;;4946094;28;19910;-78
2022/08/17 08:33:59;;;;;;;;;;;25.50;99.90;;;;;;4941918;28;20021;-78
2022/08/17 08:36:25;;;;;;;;;;;24.40;99.90;;;;;;4939311;28;19937;-78
2022/08/17 08:38:59;;;;;;;;;;;26.00;99.90;;;;;;4942314;28;20708;-78
2022/08/17 08:41:32;;;;;;;;;;;28.90;99.90;;;;;;4942505;28;19913;-78
2022/08/17 08:44:16;;;;;;;;;;;26.60;99.90;;;;;;4942600;28;19922;-77
2022/08/17 08:46:58;;;;;;;;;;;27.90;99.90;;;;;;4948009;28;19918;-79
2022/08/17 08:49:30;;;;;;;;;;;30.10;99.90;;;;;;4942806;28;19911;-79
2022/08/17 08:51:57;;;;;;;;;;;30.40;99.90;;;;;;4943870;28;19929;-79
2022/08/17 08:54:32;;;;;;;;;;;29.70;99.90;;;;;;4966558;28;19910;-79
2022/08/17 08:57:06;;;;;;;;;;;31.40;98.70;;;;;;4986377;28;20419;-79
2022/08/17 08:59:36;;;;;;;;;;;32.00;94.10;;;;;;4986625;28;19920;-79
2022/08/17 09:02:11;;;;;;;;;;;30.70;95.40;;;;;;4985404;28;19909;-79
2022/08/17 09:04:55;;;;;;;;;;;27.80;99.90;;;;;;4986741;28;19909;-78
2022/08/17 09:07:29;;;;;;;;;;;26.70;99.90;;;;;;4986063;28;19914;-78
2022/08/17 09:10:15;;;;;;;;;;;25.90;99.90;;;;;;4987120;28;19905;-79
2022/08/17 09:12:59;;;;;;;;;;;25.10;99.90;;;;;;4986757;28;19956;-79
2022/08/17 09:15:32;;;;;;;;;;;29.10;99.90;;;;;;4986345;28;19967;-79
2022/08/17 09:18:03;;;;;;;;;;;30.00;96.20;;;;;;4986663;28;20669;-79
2022/08/17 09:20:34;;;;;;;;;;;29.30;96.90;;;;;;4978055;28;20286;-79
2022/08/17 09:23:02;;;;;;;;;;;30.40;93.90;;;;;;4983185;28;20388;-79
2022/08/17 09:25:30;;;;;;;;;;;28.90;96.40;;;;;;4986375;28;20368;-78
2022/08/17 09:27:58;;;;;;;;;;;28.20;98.80;;;;;;4984873;28;20024;-79
2022/08/17 09:30:35;;;;;;;;;;;30.00;96.50;;;;;;4986550;28;20021;-79
2022/08/17 09:33:05;;;;;;;;;;;29.60;92.40;;;;;;4986541;28;19909;-79
2022/08/17 09:35:33;;;;;;;;;;;30.00;94.30;;;;;;4986556;28;19993;-79
2022/08/17 09:38:02;;;;;;;;;;;30.40;95.60;;;;;;4986335;28;19913;-78
2022/08/17 09:40:28;;;;;;;;;;;32.10;90.10;;;;;;4986171;28;20005;-79
2022/08/17 09:42:59;;;;;;;;;;;31.30;93.10;;;;;;4985970;28;19917;-79
2022/08/17 09:45:25;;;;;;;;;;;30.40;92.70;;;;;;4983881;28;19906;-78
2022/08/17 09:47:54;;;;;;;;;;;32.10;90.40;;;;;;4985199;28;20530;-79
2022/08/17 09:50:23;;;;;;;;;;;31.70;89.40;;;;;;4985430;28;19909;-78
2022/08/17 09:52:52;;;;;;;;;;;30.60;91.40;;;;;;4985873;28;19928;-84
2022/08/17 09:55:18;;;;;;;;;;;29.40;92.80;;;;;;4968342;28;19925;-85
2022/08/17 09:58:07;;;;;;;;;;;28.70;93.70;;;;;;4985721;28;19977;-84
2022/08/17 10:00:34;;;;;;;;;;;29.20;93.10;;;;;;4983055;28;19941;-86
2022/08/17 10:03:15;;;;;;;;;;;30.20;91.10;;;;;;4985673;28;19910;-86
2022/08/17 10:05:59;;;;;;;;;;;29.80;91.70;;;;;;4983799;28;19920;-84
2022/08/17 10:08:26;;;;;;;;;;;29.00;93.50;;;;;;4983315;28;19914;-85
2022/08/17 10:11:04;;;;;;;;;;;28.00;94.50;;;;;;4984865;28;19988;-85
2022/08/17 10:13:41;;;;;;;;;;;28.20;95.30;;;;;;4984305;28;19996;-85
2022/08/17 10:16:10;;;;;;;;;;;27.90;93.80;;;;;;4984221;28;19917;-85
2022/08/17 10:18:44;;;;;;;;;;;27.70;96.20;;;;;;4984281;28;19929;-85
2022/08/17 10:26:54;;;;;;;;;;;27.10;97.30;;;;;;4983823;28;19917;-86
2022/08/17 10:29:23;;;;;;;;;;;27.40;96.70;;;;;;4984545;28;20325;-85
2022/08/17 10:31:51;;;;;;;;;;;27.30;97.10;;;;;;4983523;28;19921;-84
2022/08/17 10:34:35;;;;;;;;;;;27.30;96.20;;;;;;4984512;28;20648;-84
2022/08/17 10:37:11;;;;;;;;;;;27.00;97.80;;;;;;4964455;28;19956;-85
2022/08/17 10:39:44;;;;;;;;;;;26.60;98.20;;;;;;4984736;28;19910;-82
2022/08/17 10:42:20;;;;;;;;;;;26.30;98.80;;;;;;4965466;28;19913;-85
2022/08/17 10:44:55;;;;;;;;;;;26.30;97.60;;;;;;4984389;28;19910;-84
2022/08/17 10:47:23;;;;;;;;;;;26.40;99.10;;;;;;4976630;28;19921;-86
2022/08/17 10:49:52;;;;;;;;;;;25.90;98.30;;;;;;4982967;28;19914;-85
2022/08/17 10:52:18;;;;;;;;;;;26.00;97.10;;;;;;4982934;28;20028;-85
2022/08/17 10:54:45;;;;;;;;;;;26.00;97.30;;;;;;4983544;28;19918;-85
2022/08/17 10:57:26;;;;;;;;;;;26.40;98.40;;;;;;4983507;28;19980;-84
2022/08/17 10:59:52;;;;;;;;;;;26.40;97.10;;;;;;4983441;28;19909;-85
2022/08/17 11:02:17;;;;;;;;;;;26.70;97.40;;;;;;4965404;28;20389;-86
2022/08/17 11:04:46;;;;;;;;;;;26.90;97.60;;;;;;4981666;28;19917;-85
2022/08/17 11:07:12;;;;;;;;;;;27.20;98.10;;;;;;4984508;28;20876;-85
2022/08/17 11:09:46;;;;;;;;;;;27.60;96.60;;;;;;4966336;28;19929;-84
2022/08/17 11:12:31;;;;;;;;;;;27.10;96.00;;;;;;4964647;28;19920;-85
2022/08/17 11:15:12;;;;;;;;;;;27.50;96.30;;;;;;4976569;28;19925;-88
2022/08/17 11:17:49;;;;;;;;;;;27.20;97.00;;;;;;4983630;28;19951;-88
2022/08/17 11:20:47;;;;;;;;;;;27.00;96.10;;;;;;4970707;28;19942;-89
2022/08/17 11:23:44;;;;;;;;;;;27.00;92.10;;;;;;4882230;29;19927;-87
2022/08/17 11:26:25;;;;;;;;;;;27.80;93.70;;;;;;4857056;29;20727;-87
2022/08/17 11:28:53;;;;;;;;;;;27.60;92.60;;;;;;4855166;29;19959;-83
2022/08/17 11:31:24;;;;;;;;;;;27.80;94.30;;;;;;4865876;29;19916;-85
2022/08/17 11:33:54;;;;;;;;;;;28.30;93.70;;;;;;4849250;29;19911;-88
2022/08/17 11:36:20;;;;;;;;;;;27.30;94.10;;;;;;4867270;29;20462;-86
2022/08/17 11:38:57;;;;;;;;;;;26.60;94.80;;;;;;4866970;29;19911;-86
2022/08/17 11:41:28;;;;;;;;;;;26.20;94.20;;;;;;4866266;29;20376;-86
2022/08/17 11:43:56;;;;;;;;;;;27.00;96.80;;;;;;4867027;29;19938;-86
2022/08/17 11:52:38;;;;;;;;;;;27.30;93.80;;;;;;4881405;29;19929;-87
2022/08/17 11:55:05;;;;;;;;;;;27.70;94.00;;;;;;4885724;29;19942;-88
2022/08/17 11:57:33;;;;;;;;;;;27.60;93.50;;;;;;4881242;29;20094;-90
2022/08/17 12:00:11;;;;;;;;;;;27.70;94.10;;;;;;4945674;28;19968;-90
2022/08/17 12:02:43;;;;;;;;;;;27.60;94.00;;;;;;4975399;28;20324;-89
2022/08/17 12:05:11;;;;;;;;;;;27.10;94.30;;;;;;4984684;28;19910;-89
2022/08/17 12:07:57;;;;;;;;;;;27.50;93.50;;;;;;4980849;28;19972;-89
2022/08/17 12:10:30;;;;;;;;;;;27.50;94.90;;;;;;4973038;28;19925;-89
2022/08/17 12:12:57;;;;;;;;;;;27.80;95.40;;;;;;4979975;28;19910;-88
2022/08/17 12:15:35;;;;;;;;;;;27.80;92.40;;;;;;4981177;28;19930;-88
2022/08/17 12:18:00;;;;;;;;;;;27.40;93.50;;;;;;4977167;28;19910;-90
2022/08/17 12:20:26;;;;;;;;;;;27.30;94.40;;;;;;4983457;28;20349;-87
2022/08/17 12:23:10;;;;;;;;;;;26.90;94.00;;;;;;4976765;28;20436;-87
2022/08/17 12:25:48;;;;;;;;;;;26.90;94.30;;;;;;4977270;28;19917;-89
2022/08/17 12:28:20;;;;;;;;;;;26.70;94.90;;;;;;4982277;28;19942;-89
2022/08/17 12:30:49;;;;;;;;;;;26.20;94.90;;;;;;4986400;28;19913;-88
2022/08/17 12:33:23;;;;;;;;;;;26.20;94.80;;;;;;4984200;28;19972;-89
2022/08/17 12:35:54;;;;;;;;;;;26.50;94.20;;;;;;4983669;28;20735;-88
2022/08/17 12:38:19;;;;;;;;;;;26.40;94.30;;;;;;4979753;28;19953;-88
2022/08/17 12:40:52;;;;;;;;;;;26.20;91.90;;;;;;4985350;28;19913;-89
2022/08/17 12:43:19;;;;;;;;;;;26.00;92.20;;;;;;4991555;28;19914;-87
2022/08/17 12:45:52;;;;;;;;;;;25.80;92.00;;;;;;4980551;28;19940;-85
2022/08/17 12:48:22;;;;;;;;;;;25.90;94.20;;;;;;4986701;28;20381;-88
2022/08/17 12:50:49;;;;;;;;;;;26.10;91.80;;;;;;4983951;28;20021;-88
2022/08/17 12:53:16;;;;;;;;;;;25.80;92.10;;;;;;4984761;28;19917;-80
2022/08/17 12:55:43;;;;;;;;;;;25.80;92.50;;;;;;4984672;28;19922;-79
2022/08/17 12:58:16;;;;;;;;;;;25.20;92.70;;;;;;4985443;28;19917;-79
2022/08/17 13:00:49;;;;;;;;;;;25.40;91.20;;;;;;4980077;28;19913;-79
2022/08/17 13:03:18;;;;;;;;;;;26.00;93.20;;;;;;4957356;28;19917;-79
2022/08/17 13:06:00;;;;;;;;;;;26.20;93.20;;;;;;4984418;28;20381;-79
2022/08/17 13:08:38;;;;;;;;;;;26.00;93.00;;;;;;4965043;28;20296;-78
2022/08/17 13:11:07;;;;;;;;;;;25.90;93.50;;;;;;4983396;28;20013;-78
2022/08/17 13:13:34;;;;;;;;;;;25.80;92.50;;;;;;4977724;28;19914;-78
2022/08/17 13:15:59;;;;;;;;;;;25.90;90.40;;;;;;4980002;28;19925;-78
2022/08/17 13:18:43;;;;;;;;;;;25.80;91.50;;;;;;4983480;28;19914;-79
2022/08/17 13:21:18;;;;;;;;;;;25.90;91.00;;;;;;4971088;28;19997;-79
2022/08/17 13:23:58;;;;;;;;;;;25.90;91.00;;;;;;4984046;28;20297;-81
2022/08/17 13:26:31;;;;;;;;;;;25.90;91.50;;;;;;4984653;28;19949;-79
2022/08/17 13:28:57;;;;;;;;;;;25.90;90.70;;;;;;4978706;28;20381;-79
2022/08/17 13:31:26;;;;;;;;;;;26.00;91.90;;;;;;4981686;28;19914;-79
2022/08/17 13:34:30;;;;;;;;;;;25.60;92.10;;;;;;4983118;28;19909;-78
2022/08/17 13:37:14;;;;;;;;;;;25.90;91.50;;;;;;4904366;29;20398;-78
2022/08/17 13:39:40;;;;;;;;;;;26.60;92.00;;;;;;4904369;29;19922;-78
2022/08/17 13:42:26;;;;;;;;;;;27.00;90.70;;;;;;4905523;29;19926;-78
2022/08/17 13:44:51;;;;;;;;;;;26.90;90.70;;;;;;4902637;29;19919;-78
2022/08/17 13:47:19;;;;;;;;;;;27.00;90.10;;;;;;4890649;29;19982;-78
2022/08/17 13:49:44;;;;;;;;;;;27.20;90.40;;;;;;4888802;29;19933;-78
2022/08/17 13:52:30;;;;;;;;;;;27.10;90.90;;;;;;4902773;29;20735;-88
2022/08/17 13:54:58;;;;;;;;;;;26.50;90.10;;;;;;4902259;29;20020;-88
2022/08/17 13:57:24;;;;;;;;;;;26.10;90.10;;;;;;4907062;29;20438;-86
2022/08/17 13:59:52;;;;;;;;;;;25.90;90.50;;;;;;4906110;29;19911;-88
2022/08/17 14:02:18;;;;;;;;;;;25.70;90.70;;;;;;4902990;29;20588;-87
2022/08/17 14:04:44;;;;;;;;;;;25.90;90.60;;;;;;4905172;29;19921;-87
2022/08/17 14:07:14;;;;;;;;;;;26.00;90.70;;;;;;4920129;28;19906;-85
2022/08/17 14:09:52;;;;;;;;;;;25.80;90.20;;;;;;4959869;28;19941;-87
2022/08/17 14:12:19;;;;;;;;;;;25.90;90.80;;;;;;4943153;28;19944;-86
2022/08/17 14:14:45;;;;;;;;;;;26.40;89.30;;;;;;4967168;28;19920;-86
2022/08/17 14:17:11;;;;;;;;;;;26.90;87.80;;;;;;4979483;28;19914;-86
2022/08/17 14:19:36;;;;;;;;;;;27.10;87.00;;;;;;4965652;28;19910;-85
2022/08/17 14:22:03;;;;;;;;;;;26.90;86.90;;;;;;4965956;28;20598;-86
2022/08/17 14:24:31;;;;;;;;;;;27.20;88.40;;;;;;4965544;28;20000;-85
2022/08/17 14:26:57;;;;;;;;;;;27.40;87.70;;;;;;4952149;28;20536;-85
2022/08/17 14:29:24;;;;;;;;;;;27.20;86.60;;;;;;4966184;28;19912;-86
2022/08/17 14:31:49;;;;;;;;;;;27.00;86.10;;;;;;4965755;28;20026;-87
2022/08/17 14:34:15;;;;;;;;;;;27.00;88.40;;;;;;4965207;28;20547;-85
2022/08/17 14:36:41;;;;;;;;;;;27.00;85.50;;;;;;4962041;28;19926;-87
2022/08/17 14:39:10;;;;;;;;;;;26.90;84.40;;;;;;4965360;28;19914;-85
2022/08/17 14:41:37;;;;;;;;;;;26.80;87.00;;;;;;4965731;28;19922;-85
2022/08/17 14:44:03;;;;;;;;;;;26.50;84.70;;;;;;4955890;28;19917;-86
2022/08/17 14:46:28;;;;;;;;;;;26.60;85.60;;;;;;4970878;28;20009;-86
2022/08/17 14:48:54;;;;;;;;;;;26.30;85.50;;;;;;4965233;28;20025;-86
2022/08/17 14:51:20;;;;;;;;;;;26.30;86.00;;;;;;4942958;28;19929;-79
2022/08/17 14:53:47;;;;;;;;;;;26.50;84.70;;;;;;4943762;28;20394;-85
2022/08/17 14:56:12;;;;;;;;;;;26.40;84.40;;;;;;4945938;28;19928;-88
2022/08/17 14:58:41;;;;;;;;;;;26.40;84.50;;;;;;4964510;28;19918;-85
2022/08/17 15:01:08;;;;;;;;;;;26.10;85.60;;;;;;4962837;28;19922;-85
2022/08/17 15:03:33;;;;;;;;;;;25.90;87.10;;;;;;4963918;28;20012;-85